Target — 9HA2149 — position and weather

sailwx.info

Track history (hours):
 
Tides and Currents Weather Stations Pressure Air Temp Water Temp Dewpoint Dewpoint Depression Visibility Wind Speed Wind Dir Waves Ship Positions

Target

Last reported at 2014-Dec-22 05:34 UTC. Time now 2014-Dec-22 06:20 UTC.
Position N 44°30' E 037°40'.

Length 250 m; draft 11.8 m.

Type: Tanker. MMSI: 248057000.

Date/timePositionNaut miles runAvg speedWind from/ knotsBaromVisibWave heightAir tempDewpointWater temp
2014-Dec-22 05:34N 44°30' E 037°40'2 1.3
2014-Dec-22 04:19N 44°31' E 037°42'1 1.0
2014-Dec-22 03:25N 44°32' E 037°43'1 1.4
2014-Dec-22 02:33N 44°31' E 037°41'4 4.4
2014-Dec-22 01:33N 44°27' E 037°41'2 1.6
2014-Dec-22 00:08N 44°28' E 037°43'1 0.9
2014-Dec-21 23:23N 44°29' E 037°44'0 0.5
2014-Dec-21 22:32N 44°29' E 037°44'0 0.2
2014-Dec-21 21:32N 44°29' E 037°44'1 0.6
2014-Dec-21 20:33N 44°30' E 037°44'2 1.8
2014-Dec-21 19:29N 44°32' E 037°42'0 0.5
2014-Dec-21 18:32N 44°31' E 037°42'1 0.6
2014-Dec-21 17:32N 44°31' E 037°42'1 0.6
2014-Dec-21 16:32N 44°30' E 037°41'1 0.5
2014-Dec-21 15:32N 44°30' E 037°41'4 3.7
2014-Dec-21 14:32N 44°33' E 037°44'1 0.9
2014-Dec-21 13:32N 44°32' E 037°44'1 0.7
2014-Dec-21 12:32N 44°31' E 037°44'5 5.4
2014-Dec-21 11:33N 44°36' E 037°45'1 1.1
2014-Dec-21 10:33N 44°37' E 037°44'2 1.7
2014-Dec-21 09:33N 44°36' E 037°44'5 5.1
2014-Dec-21 08:33N 44°33' E 037°50'4 3.6
2014-Dec-21 07:31N 44°29' E 037°50'0 0.4
2014-Dec-21 06:28N 44°28' E 037°50'0 0.3
2014-Dec-21 05:33N 44°28' E 037°50'0 0.3
2014-Dec-21 04:33N 44°28' E 037°50'0 0.2
2014-Dec-21 03:32N 44°28' E 037°50'1 0.9
2014-Dec-21 02:33N 44°28' E 037°48'5 5.0
2014-Dec-21 01:33N 44°31' E 037°43'6 6.5
2014-Dec-21 00:33N 44°37' E 037°38'1 0.1
2014-Dec-20 13:18N 44°38' E 037°38'0 0.0
2014-Dec-20 10:15N 44°38' E 037°38'0 0.0
2014-Dec-20 08:19N 44°38' E 037°38'1 1.4
2014-Dec-20 07:33N 44°37' E 037°39'3 3.3
2014-Dec-20 06:33N 44°34' E 037°38'6 5.7
2014-Dec-20 05:33N 44°28' E 037°40'1010.5
2014-Dec-20 04:34N 44°26' E 037°54'0 0.2
2014-Dec-20 03:33N 44°27' E 037°54'1 0.5
2014-Dec-20 02:33N 44°27' E 037°53'0 0.5
2014-Dec-20 01:33N 44°27' E 037°53'1 0.5
2014-Dec-20 00:30N 44°27' E 037°52'0 0.5
2014-Dec-19 23:33N 44°26' E 037°51'1 0.5
2014-Dec-19 22:27N 44°26' E 037°51'0 0.4
2014-Dec-19 21:30N 44°26' E 037°50'0 0.4
2014-Dec-19 20:33N 44°26' E 037°50'1 0.6
2014-Dec-19 19:33N 44°25' E 037°50'1 0.5
2014-Dec-19 18:21N 44°25' E 037°50'0 0.4
2014-Dec-19 17:33N 44°25' E 037°50'0 0.3
2014-Dec-19 16:33N 44°24' E 037°50'0 0.3
2014-Dec-19 15:33N 44°24' E 037°51'0 0.2
2014-Dec-19 14:33N 44°24' E 037°51'0 0.0
2014-Dec-19 13:33N 44°24' E 037°51'0 0.2
2014-Dec-19 12:33N 44°24' E 037°51'0 0.2
2014-Dec-19 11:33N 44°24' E 037°50'0 0.4
2014-Dec-19 10:33N 44°25' E 037°50'0 0.3
2014-Dec-19 09:30N 44°25' E 037°49'1 0.5
2014-Dec-19 08:30N 44°24' E 037°49'1 1.3
2014-Dec-19 07:33N 44°25' E 037°50'5 4.8
2014-Dec-19 06:32N 44°29' E 037°53'1 1.2
2014-Dec-19 05:32N 44°28' E 037°53'1 1.1
2014-Dec-19 04:26N 44°27' E 037°53'1 1.0
2014-Dec-19 03:26N 44°26' E 037°53'1 0.8
2014-Dec-19 02:32N 44°25' E 037°53'0 0.3
2014-Dec-19 01:23N 44°25' E 037°52'2 2.3
2014-Dec-19 00:34N 44°26' E 037°50'1111.1
2014-Dec-18 23:33N 44°36' E 037°44'1 1.0
2014-Dec-18 22:34N 44°37' E 037°44'0 0.2
2014-Dec-18 21:33N 44°37' E 037°44'7 7.1
2014-Dec-18 20:32N 44°30' E 037°39'1111.4
2014-Dec-18 19:33N 44°23' E 037°27'1313.0
2014-Dec-18 18:33N 44°16' E 037°12'1613.2
2014-Dec-18 17:22N 44°09' E 036°52'7210.5
2014-Dec-18 10:32N 43°40' E 035°21'0 0.4
2014-Dec-18 09:32N 43°39' E 035°21'0 0.4
2014-Dec-18 08:29N 43°39' E 035°21'2 2.1
2014-Dec-18 07:33N 43°40' E 035°18'1311.7
2014-Dec-18 06:29N 43°36' E 035°02'1313.5
2014-Dec-18 05:33N 43°31' E 034°46'29612.9
2014-Dec-17 06:30N 41°02' E 028°60'7 7.7
2014-Dec-17 05:33N 40°55' E 028°57'4 4.5
2014-Dec-17 04:32N 40°56' E 028°51'1 0.6
2014-Dec-17 03:22N 40°56' E 028°51'0 0.0
2014-Dec-16 16:19N 40°56' E 028°51'0 0.0
2014-Dec-16 15:31N 40°56' E 028°51'0 0.0
2014-Dec-16 08:07N 40°56' E 028°51'151 5.0
2014-Dec-15 02:06N 39°47' E 025°55'  
Track history (hours):
 
Tides and Currents Weather Stations Pressure Air Temp Water Temp Dewpoint Dewpoint Depression Visibility Wind Speed Wind Dir Waves Ship Positions

Target

Last reported at 2014-Dec-22 05:34 UTC. Time now 2014-Dec-22 06:20 UTC.
Position N 44°30' E 037°40'.

Length 250 m; draft 11.8 m.

Type: Tanker. MMSI: 248057000.

Date/timePositionNaut miles runAvg speedWind from/ knotsBaromVisibWave heightAir tempDewpointWater temp
2014-Dec-22 05:34N 44°30' E 037°40'2 1.3
2014-Dec-22 04:19N 44°31' E 037°42'1 1.0
2014-Dec-22 03:25N 44°32' E 037°43'1 1.4
2014-Dec-22 02:33N 44°31' E 037°41'4 4.4
2014-Dec-22 01:33N 44°27' E 037°41'2 1.6
2014-Dec-22 00:08N 44°28' E 037°43'1 0.9
2014-Dec-21 23:23N 44°29' E 037°44'0 0.5
2014-Dec-21 22:32N 44°29' E 037°44'0 0.2
2014-Dec-21 21:32N 44°29' E 037°44'1 0.6
2014-Dec-21 20:33N 44°30' E 037°44'2 1.8
2014-Dec-21 19:29N 44°32' E 037°42'0 0.5
2014-Dec-21 18:32N 44°31' E 037°42'1 0.6
2014-Dec-21 17:32N 44°31' E 037°42'1 0.6
2014-Dec-21 16:32N 44°30' E 037°41'1 0.5
2014-Dec-21 15:32N 44°30' E 037°41'4 3.7
2014-Dec-21 14:32N 44°33' E 037°44'1 0.9
2014-Dec-21 13:32N 44°32' E 037°44'1 0.7
2014-Dec-21 12:32N 44°31' E 037°44'5 5.4
2014-Dec-21 11:33N 44°36' E 037°45'1 1.1
2014-Dec-21 10:33N 44°37' E 037°44'2 1.7
2014-Dec-21 09:33N 44°36' E 037°44'5 5.1
2014-Dec-21 08:33N 44°33' E 037°50'4 3.6
2014-Dec-21 07:31N 44°29' E 037°50'0 0.4
2014-Dec-21 06:28N 44°28' E 037°50'0 0.3
2014-Dec-21 05:33N 44°28' E 037°50'0 0.3
2014-Dec-21 04:33N 44°28' E 037°50'0 0.2
2014-Dec-21 03:32N 44°28' E 037°50'1 0.9
2014-Dec-21 02:33N 44°28' E 037°48'5 5.0
2014-Dec-21 01:33N 44°31' E 037°43'6 6.5
2014-Dec-21 00:33N 44°37' E 037°38'1 0.1
2014-Dec-20 13:18N 44°38' E 037°38'0 0.0
2014-Dec-20 10:15N 44°38' E 037°38'0 0.0
2014-Dec-20 08:19N 44°38' E 037°38'1 1.4
2014-Dec-20 07:33N 44°37' E 037°39'3 3.3
2014-Dec-20 06:33N 44°34' E 037°38'6 5.7
2014-Dec-20 05:33N 44°28' E 037°40'1010.5
2014-Dec-20 04:34N 44°26' E 037°54'0 0.2
2014-Dec-20 03:33N 44°27' E 037°54'1 0.5
2014-Dec-20 02:33N 44°27' E 037°53'0 0.5
2014-Dec-20 01:33N 44°27' E 037°53'1 0.5
2014-Dec-20 00:30N 44°27' E 037°52'0 0.5
2014-Dec-19 23:33N 44°26' E 037°51'1 0.5
2014-Dec-19 22:27N 44°26' E 037°51'0 0.4
2014-Dec-19 21:30N 44°26' E 037°50'0 0.4
2014-Dec-19 20:33N 44°26' E 037°50'1 0.6
2014-Dec-19 19:33N 44°25' E 037°50'1 0.5
2014-Dec-19 18:21N 44°25' E 037°50'0 0.4
2014-Dec-19 17:33N 44°25' E 037°50'0 0.3
2014-Dec-19 16:33N 44°24' E 037°50'0 0.3
2014-Dec-19 15:33N 44°24' E 037°51'0 0.2
2014-Dec-19 14:33N 44°24' E 037°51'0 0.0
2014-Dec-19 13:33N 44°24' E 037°51'0 0.2
2014-Dec-19 12:33N 44°24' E 037°51'0 0.2
2014-Dec-19 11:33N 44°24' E 037°50'0 0.4
2014-Dec-19 10:33N 44°25' E 037°50'0 0.3
2014-Dec-19 09:30N 44°25' E 037°49'1 0.5
2014-Dec-19 08:30N 44°24' E 037°49'1 1.3
2014-Dec-19 07:33N 44°25' E 037°50'5 4.8
2014-Dec-19 06:32N 44°29' E 037°53'1 1.2
2014-Dec-19 05:32N 44°28' E 037°53'1 1.1
2014-Dec-19 04:26N 44°27' E 037°53'1 1.0
2014-Dec-19 03:26N 44°26' E 037°53'1 0.8
2014-Dec-19 02:32N 44°25' E 037°53'0 0.3
2014-Dec-19 01:23N 44°25' E 037°52'2 2.3
2014-Dec-19 00:34N 44°26' E 037°50'1111.1
2014-Dec-18 23:33N 44°36' E 037°44'1 1.0
2014-Dec-18 22:34N 44°37' E 037°44'0 0.2
2014-Dec-18 21:33N 44°37' E 037°44'7 7.1
2014-Dec-18 20:32N 44°30' E 037°39'1111.4
2014-Dec-18 19:33N 44°23' E 037°27'1313.0
2014-Dec-18 18:33N 44°16' E 037°12'1613.2
2014-Dec-18 17:22N 44°09' E 036°52'7210.5
2014-Dec-18 10:32N 43°40' E 035°21'0 0.4
2014-Dec-18 09:32N 43°39' E 035°21'0 0.4
2014-Dec-18 08:29N 43°39' E 035°21'2 2.1
2014-Dec-18 07:33N 43°40' E 035°18'1311.7
2014-Dec-18 06:29N 43°36' E 035°02'1313.5
2014-Dec-18 05:33N 43°31' E 034°46'29612.9
2014-Dec-17 06:30N 41°02' E 028°60'7 7.7
2014-Dec-17 05:33N 40°55' E 028°57'4 4.5
2014-Dec-17 04:32N 40°56' E 028°51'1 0.6
2014-Dec-17 03:22N 40°56' E 028°51'0 0.0
2014-Dec-16 16:19N 40°56' E 028°51'0 0.0
2014-Dec-16 15:31N 40°56' E 028°51'0 0.0
2014-Dec-16 08:07N 40°56' E 028°51'151 5.0
2014-Dec-15 02:06N 39°47' E 025°55'  

Dump ship's entire track history